Time;durP1;ratioP1;P1;durP2;ratioP2;P2;SDS_P1;SDS_P2;PMS_P1;PMS_P2;Temp;Humidity;BMP_temperature;BMP_pressure;BME280_temperature;BME280_humidity;BME280_pressure;Samples;Min_cycle;Max_cycle;Signal;HPM_P1;HPM_P2
2024/02/22 00:01:55;;;;;;;243.88;229.30;;;13.20;99.90;;;;;;5027717;28;20475;-77
2024/02/22 00:04:21;;;;;;;254.88;238.98;;;13.20;99.90;;;;;;5030315;28;20022;-77
2024/02/22 00:06:47;;;;;;;251.45;236.50;;;13.20;99.90;;;;;;5031647;28;20041;-78
2024/02/22 00:09:14;;;;;;;220.68;207.38;;;13.20;99.90;;;;;;5035091;28;20036;-77
2024/02/22 00:11:40;;;;;;;206.05;194.57;;;13.20;99.90;;;;;;5033270;28;20037;-77
2024/02/22 00:14:07;;;;;;;257.98;242.40;;;13.20;99.90;;;;;;5026409;28;20049;-78
2024/02/22 00:16:34;;;;;;;216.23;203.70;;;13.20;99.90;;;;;;5029349;28;20048;-77
2024/02/22 00:19:00;;;;;;;261.05;243.50;;;13.20;99.90;;;;;;5028791;28;20049;-77
2024/02/22 00:21:26;;;;;;;286.05;268.05;;;13.20;99.90;;;;;;5025784;28;20050;-77
2024/02/22 00:23:53;;;;;;;221.40;208.85;;;13.30;99.90;;;;;;5034768;28;20395;-77
2024/02/22 00:26:21;;;;;;;236.40;222.70;;;13.30;99.90;;;;;;5031065;28;20029;-77
2024/02/22 00:28:47;;;;;;;298.73;279.45;;;13.20;99.90;;;;;;5033112;28;20049;-77
2024/02/22 00:31:13;;;;;;;230.70;217.23;;;13.20;99.90;;;;;;5033080;28;20034;-77
2024/02/22 00:33:39;;;;;;;259.85;243.63;;;13.20;99.90;;;;;;5031901;28;20281;-77
2024/02/22 00:36:05;;;;;;;305.92;284.92;;;13.20;99.90;;;;;;5030508;28;20021;-77
2024/02/22 00:38:32;;;;;;;299.88;279.67;;;13.20;99.90;;;;;;5033092;28;20490;-77
2024/02/22 00:40:58;;;;;;;275.42;258.17;;;13.20;99.90;;;;;;5033552;28;20053;-77
2024/02/22 00:43:24;;;;;;;262.20;246.25;;;13.30;99.90;;;;;;5034267;28;20042;-77
2024/02/22 00:45:50;;;;;;;293.13;274.33;;;13.30;99.90;;;;;;5033425;28;20038;-77
2024/02/22 00:48:17;;;;;;;244.88;231.02;;;13.30;99.90;;;;;;5033257;28;20042;-76
2024/02/22 00:50:43;;;;;;;255.18;240.25;;;13.30;99.90;;;;;;5033814;28;20040;-77
2024/02/22 00:53:10;;;;;;;293.45;275.65;;;13.30;99.90;;;;;;5033096;28;20048;-77
2024/02/22 00:55:36;;;;;;;305.92;284.65;;;13.30;99.90;;;;;;5032236;28;20032;-77
2024/02/22 00:58:02;;;;;;;285.30;266.55;;;13.30;99.90;;;;;;5033607;28;20060;-77
2024/02/22 01:00:29;;;;;;;245.70;231.25;;;13.30;99.90;;;;;;5033303;28;20052;-77
2024/02/22 01:02:55;;;;;;;253.52;238.32;;;13.30;99.90;;;;;;5033058;28;20042;-77
2024/02/22 01:05:22;;;;;;;264.38;248.65;;;13.30;99.90;;;;;;5032685;28;20030;-77
2024/02/22 01:07:48;;;;;;;338.52;315.70;;;13.30;99.90;;;;;;5033977;28;20490;-77
2024/02/22 01:10:14;;;;;;;271.63;255.75;;;13.30;99.90;;;;;;5032680;28;20029;-77
2024/02/22 01:12:40;;;;;;;335.30;312.45;;;13.30;99.90;;;;;;5033816;28;20397;-76
2024/02/22 01:15:06;;;;;;;233.48;220.40;;;13.30;99.90;;;;;;5019742;28;20030;-77
2024/02/22 01:17:32;;;;;;;331.20;307.38;;;13.30;99.90;;;;;;5034184;28;20114;-77
2024/02/22 01:19:58;;;;;;;232.13;218.20;;;13.30;99.90;;;;;;5057551;28;20052;-77
2024/02/22 01:22:25;;;;;;;243.75;228.52;;;13.30;99.90;;;;;;5032794;28;20029;-77
2024/02/22 01:24:51;;;;;;;252.15;237.07;;;13.30;99.90;;;;;;5032688;28;20486;-77
2024/02/22 01:27:17;;;;;;;250.82;235.32;;;13.30;99.90;;;;;;5028281;28;20041;-77
2024/02/22 01:29:43;;;;;;;309.63;289.75;;;13.30;99.90;;;;;;5033812;28;20056;-77
2024/02/22 01:32:09;;;;;;;249.48;233.93;;;13.30;99.90;;;;;;5032791;28;20033;-77
2024/02/22 01:34:36;;;;;;;262.65;247.05;;;13.30;99.90;;;;;;5026681;28;20033;-76
2024/02/22 01:37:02;;;;;;;321.85;299.33;;;13.30;99.90;;;;;;5062633;28;20026;-76
2024/02/22 01:39:28;;;;;;;376.92;347.90;;;13.30;99.90;;;;;;5033004;28;20517;-76
2024/02/22 01:41:54;;;;;;;337.40;314.38;;;13.30;99.90;;;;;;5031605;28;20056;-76
2024/02/22 01:44:26;;;;;;;376.73;349.23;;;13.40;99.90;;;;;;5033844;28;20030;-77
2024/02/22 01:46:52;;;;;;;333.40;311.17;;;13.30;99.90;;;;;;5052230;28;20054;-76
2024/02/22 01:49:18;;;;;;;316.50;295.58;;;13.30;99.90;;;;;;5031331;28;20739;-76
2024/02/22 01:51:44;;;;;;;372.27;346.40;;;13.40;99.90;;;;;;5030881;28;20026;-76
2024/02/22 01:54:12;;;;;;;354.65;331.05;;;13.40;99.90;;;;;;5031623;28;20037;-76
2024/02/22 01:56:39;;;;;;;284.23;267.38;;;13.40;99.90;;;;;;5027886;28;20724;-76
2024/02/22 01:59:05;;;;;;;276.88;259.83;;;13.40;99.90;;;;;;5063646;28;20033;-76
2024/02/22 02:01:31;;;;;;;303.48;283.17;;;13.40;99.90;;;;;;5011973;28;20406;-76
2024/02/22 02:03:57;;;;;;;246.35;231.63;;;13.40;99.90;;;;;;5030207;28;20037;-76
2024/02/22 02:06:23;;;;;;;247.30;232.40;;;13.40;99.90;;;;;;5032225;28;20042;-75
2024/02/22 02:08:50;;;;;;;209.13;196.90;;;13.40;99.90;;;;;;5025406;28;20568;-76
2024/02/22 02:11:16;;;;;;;257.70;241.88;;;13.40;99.90;;;;;;5031137;28;20045;-76
2024/02/22 02:13:42;;;;;;;334.25;312.45;;;13.40;99.90;;;;;;5031861;28;20037;-76
2024/02/22 02:16:08;;;;;;;316.55;295.55;;;13.40;99.90;;;;;;5027611;28;20513;-76
2024/02/22 02:18:34;;;;;;;267.58;250.68;;;13.30;99.90;;;;;;5027600;28;20034;-77
2024/02/22 02:21:23;;;;;;;321.25;301.40;;;13.40;99.90;;;;;;5025410;28;20152;-77
2024/02/22 02:24:15;;;;;;;313.63;293.20;;;13.40;99.90;;;;;;5031186;28;20387;-77
2024/02/22 02:26:41;;;;;;;272.17;255.52;;;13.40;99.90;;;;;;5057150;28;20127;-76
2024/02/22 02:29:07;;;;;;;334.15;310.55;;;13.40;99.90;;;;;;5031566;28;20041;-76
2024/02/22 02:31:33;;;;;;;312.15;291.23;;;13.40;99.90;;;;;;5028879;28;20029;-76
2024/02/22 02:34:00;;;;;;;316.55;296.25;;;13.30;99.90;;;;;;5029361;28;20033;-76
2024/02/22 02:36:26;;;;;;;296.95;277.73;;;13.30;99.90;;;;;;5029937;28;20050;-76
2024/02/22 02:38:52;;;;;;;275.48;258.55;;;13.30;99.90;;;;;;5031255;28;20041;-76
2024/02/22 02:41:18;;;;;;;351.48;327.60;;;13.30;99.90;;;;;;5060557;28;20060;-76
2024/02/22 02:43:44;;;;;;;302.27;283.33;;;13.40;99.90;;;;;;5030546;28;20041;-76
2024/02/22 02:46:10;;;;;;;326.25;304.77;;;13.40;99.90;;;;;;5024198;28;20056;-76
2024/02/22 02:48:36;;;;;;;351.05;327.48;;;13.40;99.90;;;;;;5029271;28;20041;-76
2024/02/22 02:51:04;;;;;;;262.15;245.70;;;13.40;99.90;;;;;;5019067;28;20029;-76
2024/02/22 02:53:30;;;;;;;460.60;423.73;;;13.40;99.90;;;;;;5030244;28;20045;-76
2024/02/22 02:55:56;;;;;;;339.08;315.63;;;13.40;99.90;;;;;;5029757;28;20045;-76
2024/02/22 02:58:22;;;;;;;299.50;279.92;;;13.40;99.90;;;;;;5029179;28;20461;-76
2024/02/22 03:00:48;;;;;;;336.23;313.05;;;13.40;99.90;;;;;;5029270;28;20049;-76
2024/02/22 03:03:14;;;;;;;244.57;230.07;;;13.40;99.90;;;;;;5027479;28;20486;-76
2024/02/22 03:05:40;;;;;;;241.20;226.60;;;13.40;99.90;;;;;;5025683;28;20041;-76
2024/02/22 03:08:06;;;;;;;287.90;268.52;;;13.40;99.90;;;;;;5028677;28;20036;-76
2024/02/22 03:10:32;;;;;;;248.02;233.05;;;13.40;99.90;;;;;;5029393;28;20494;-76
2024/02/22 03:13:02;;;;;;;296.60;276.48;;;13.40;99.90;;;;;;5026590;28;20371;-75
2024/02/22 03:15:28;;;;;;;249.52;235.23;;;13.40;99.90;;;;;;5057176;28;20056;-76
2024/02/22 03:17:54;;;;;;;258.90;242.63;;;13.40;99.90;;;;;;5029188;28;20041;-76
2024/02/22 03:20:20;;;;;;;285.38;266.08;;;13.40;99.90;;;;;;5025736;28;20060;-76
2024/02/22 03:22:46;;;;;;;272.55;254.85;;;13.40;99.90;;;;;;5014906;28;20025;-77
2024/02/22 03:25:12;;;;;;;207.82;195.65;;;13.40;99.90;;;;;;5029257;28;20056;-76
2024/02/22 03:27:38;;;;;;;241.52;226.07;;;13.40;99.90;;;;;;5029730;28;20463;-76
2024/02/22 03:30:05;;;;;;;267.75;251.40;;;13.40;99.90;;;;;;5029718;28;20029;-76
2024/02/22 03:32:31;;;;;;;303.00;283.45;;;13.40;99.90;;;;;;5024005;28;20429;-76
2024/02/22 03:34:58;;;;;;;277.48;260.02;;;13.40;99.90;;;;;;5027809;28;20029;-76
2024/02/22 03:37:24;;;;;;;261.05;244.75;;;13.40;99.90;;;;;;5030855;28;20049;-76
2024/02/22 03:39:50;;;;;;;241.23;227.02;;;13.40;99.90;;;;;;5029202;28;20060;-76
2024/02/22 03:42:17;;;;;;;194.65;183.73;;;13.40;99.90;;;;;;5029128;28;20049;-77
2024/02/22 03:44:43;;;;;;;219.73;205.48;;;13.40;99.90;;;;;;5029358;28;20033;-76
2024/02/22 03:47:09;;;;;;;230.40;216.52;;;13.40;99.90;;;;;;5059214;28;20057;-76
2024/02/22 03:49:35;;;;;;;224.30;211.38;;;13.40;99.90;;;;;;5031148;28;20021;-76
2024/02/22 03:52:01;;;;;;;205.82;194.43;;;13.50;99.90;;;;;;5027954;28;20049;-76
2024/02/22 03:54:28;;;;;;;238.57;224.50;;;13.50;99.90;;;;;;5029526;28;20026;-76
2024/02/22 03:56:54;;;;;;;397.48;366.95;;;13.40;99.90;;;;;;5031773;28;20068;-75
2024/02/22 03:59:20;;;;;;;264.65;248.00;;;13.50;99.90;;;;;;5030796;28;20030;-76
2024/02/22 04:01:46;;;;;;;304.15;284.15;;;13.50;99.90;;;;;;5026688;28;20042;-76
2024/02/22 04:04:12;;;;;;;245.52;231.35;;;13.50;99.90;;;;;;5042435;28;20041;-76
2024/02/22 04:06:38;;;;;;;269.23;253.63;;;13.50;99.90;;;;;;5030409;28;20038;-76
2024/02/22 04:09:05;;;;;;;303.83;284.70;;;13.50;99.90;;;;;;5031876;28;20032;-76
2024/02/22 04:11:31;;;;;;;249.15;234.93;;;13.50;99.90;;;;;;5028521;28;20049;-76
2024/02/22 04:13:57;;;;;;;245.85;232.27;;;13.50;99.90;;;;;;5031606;28;20045;-76
2024/02/22 04:16:23;;;;;;;308.08;286.33;;;13.50;99.90;;;;;;5025390;28;20422;-76
2024/02/22 04:18:50;;;;;;;321.90;300.75;;;13.50;99.90;;;;;;5029585;28;20044;-76
2024/02/22 04:21:16;;;;;;;240.30;226.55;;;13.50;99.90;;;;;;5024206;28;20030;-75
2024/02/22 04:23:42;;;;;;;407.02;374.20;;;13.50;99.90;;;;;;5025226;28;20029;-76
2024/02/22 04:26:08;;;;;;;228.27;215.15;;;13.50;99.90;;;;;;5030042;28;20033;-75
2024/02/22 04:28:34;;;;;;;231.23;217.35;;;13.50;99.90;;;;;;5029416;28;20041;-75
2024/02/22 04:31:03;;;;;;;227.75;214.25;;;13.50;99.90;;;;;;5029437;28;20089;-75
2024/02/22 04:33:31;;;;;;;229.38;215.88;;;13.50;99.90;;;;;;5029966;28;20386;-75
2024/02/22 04:35:57;;;;;;;308.92;288.48;;;13.50;99.90;;;;;;5025186;28;20056;-75
2024/02/22 04:38:23;;;;;;;237.90;223.27;;;13.50;99.90;;;;;;5027380;28;20052;-75
2024/02/22 04:40:49;;;;;;;295.65;276.73;;;13.50;99.90;;;;;;5030451;28;20041;-75
2024/02/22 04:43:15;;;;;;;258.08;242.38;;;13.50;99.90;;;;;;5029966;28;20034;-75
2024/02/22 04:45:41;;;;;;;255.43;239.65;;;13.50;99.90;;;;;;5029190;28;20406;-75
2024/02/22 04:48:08;;;;;;;215.20;203.00;;;13.50;99.90;;;;;;5031240;28;20044;-75
2024/02/22 04:50:34;;;;;;;255.07;238.90;;;13.40;99.90;;;;;;5031057;28;20382;-75
2024/02/22 04:53:00;;;;;;;237.27;223.05;;;13.50;99.90;;;;;;5029636;28;20041;-75
2024/02/22 04:55:27;;;;;;;306.33;287.80;;;13.50;99.90;;;;;;5032950;28;20040;-75
2024/02/22 04:57:54;;;;;;;317.85;297.85;;;13.50;99.90;;;;;;5033629;28;20376;-74
2024/02/22 05:00:21;;;;;;;308.55;289.15;;;13.50;99.90;;;;;;5033386;28;20053;-74
2024/02/22 05:02:47;;;;;;;317.95;297.17;;;13.50;99.90;;;;;;5033769;28;20042;-75
2024/02/22 05:05:13;;;;;;;256.90;242.35;;;13.50;99.90;;;;;;5021424;28;20041;-75
2024/02/22 05:07:39;;;;;;;245.43;231.95;;;13.50;99.90;;;;;;5030570;28;20037;-75
2024/02/22 05:10:09;;;;;;;198.90;187.80;;;13.50;99.90;;;;;;5032283;28;20042;-75
2024/02/22 05:12:35;;;;;;;219.38;206.75;;;13.50;99.90;;;;;;5032602;28;20056;-75
2024/02/22 05:15:01;;;;;;;220.25;207.63;;;13.50;99.90;;;;;;5034020;28;20038;-74
2024/02/22 05:17:27;;;;;;;231.70;218.30;;;13.50;99.90;;;;;;5032493;28;20405;-75
2024/02/22 05:19:53;;;;;;;214.98;202.75;;;13.50;99.90;;;;;;5033264;28;20032;-75
2024/02/22 05:22:19;;;;;;;205.77;194.82;;;13.50;99.90;;;;;;5033402;28;20402;-74
2024/02/22 05:24:45;;;;;;;217.60;205.32;;;13.50;99.90;;;;;;5033379;28;20029;-74
2024/02/22 05:27:12;;;;;;;232.90;220.02;;;13.50;99.90;;;;;;5030832;28;20037;-74
2024/02/22 05:29:38;;;;;;;369.35;343.23;;;13.50;99.90;;;;;;5030404;28;20490;-74
2024/02/22 05:32:04;;;;;;;223.35;210.52;;;13.50;99.90;;;;;;5032600;28;20041;-74
2024/02/22 05:34:30;;;;;;;228.32;215.60;;;13.50;99.90;;;;;;5033476;28;20135;-75
2024/02/22 05:36:56;;;;;;;181.65;171.93;;;13.50;99.90;;;;;;5032120;28;20402;-74
2024/02/22 05:39:23;;;;;;;210.27;199.02;;;13.50;99.90;;;;;;5033087;28;20037;-74
2024/02/22 05:41:49;;;;;;;163.43;154.88;;;13.50;99.90;;;;;;5032793;28;20052;-75
2024/02/22 05:44:17;;;;;;;209.15;197.90;;;13.50;99.90;;;;;;5033479;28;20037;-74
2024/02/22 05:46:44;;;;;;;174.25;165.10;;;13.50;99.90;;;;;;5020611;28;20046;-74
2024/02/22 05:49:10;;;;;;;170.45;161.35;;;13.50;99.90;;;;;;5026883;28;20026;-74
2024/02/22 05:51:36;;;;;;;225.80;213.15;;;13.50;99.90;;;;;;5033714;28;20053;-74
2024/02/22 05:54:03;;;;;;;171.93;162.85;;;13.50;99.90;;;;;;5027976;28;20592;-74
2024/02/22 05:56:29;;;;;;;174.95;165.35;;;13.50;99.90;;;;;;5032892;28;20472;-74
2024/02/22 05:58:55;;;;;;;174.88;165.40;;;13.50;99.90;;;;;;5020163;28;20052;-74
2024/02/22 06:01:21;;;;;;;203.23;192.25;;;13.50;99.90;;;;;;5032602;28;20050;-74
2024/02/22 06:03:47;;;;;;;196.52;185.65;;;13.50;99.90;;;;;;5032593;28;21426;-76
2024/02/22 06:06:15;;;;;;;255.07;238.60;;;13.50;99.90;;;;;;5032857;28;20037;-73
2024/02/22 06:08:42;;;;;;;250.07;234.57;;;13.50;99.90;;;;;;5028888;28;20050;-73
2024/02/22 06:11:09;;;;;;;212.02;200.50;;;13.50;99.90;;;;;;5032273;28;20052;-73
2024/02/22 06:13:36;;;;;;;202.18;190.57;;;13.50;99.90;;;;;;5032884;28;20398;-73
2024/02/22 06:16:03;;;;;;;171.10;162.25;;;13.50;99.90;;;;;;5032939;28;20033;-73
2024/02/22 06:18:29;;;;;;;163.25;154.85;;;13.50;99.90;;;;;;5032699;28;20049;-73
2024/02/22 06:20:55;;;;;;;194.68;183.88;;;13.50;99.90;;;;;;5031659;28;20466;-73
2024/02/22 06:23:21;;;;;;;180.68;170.98;;;13.50;99.90;;;;;;5031948;28;20033;-73
2024/02/22 06:25:47;;;;;;;212.80;201.18;;;13.50;99.90;;;;;;5064008;28;20509;-73
2024/02/22 06:28:14;;;;;;;211.70;199.93;;;13.50;99.90;;;;;;5033032;28;20044;-73
2024/02/22 06:30:40;;;;;;;195.93;184.75;;;13.50;99.90;;;;;;5029686;28;20036;-73
2024/02/22 06:33:06;;;;;;;201.35;190.30;;;13.50;99.90;;;;;;5017596;28;20482;-73
2024/02/22 06:35:32;;;;;;;206.40;194.52;;;13.50;99.90;;;;;;5032628;28;20033;-73
2024/02/22 06:37:59;;;;;;;207.88;196.18;;;13.50;99.90;;;;;;5040239;28;20052;-73
2024/02/22 06:40:25;;;;;;;144.63;136.75;;;13.50;99.90;;;;;;5017114;28;20042;-73
2024/02/22 06:42:51;;;;;;;148.93;141.18;;;13.50;99.90;;;;;;5026317;28;20049;-73
2024/02/22 06:45:22;;;;;;;221.55;208.82;;;13.50;99.90;;;;;;5031005;28;20029;-73
2024/02/22 06:47:49;;;;;;;202.20;191.40;;;13.50;99.90;;;;;;5031724;28;20041;-73
2024/02/22 06:50:16;;;;;;;197.68;187.05;;;13.50;99.90;;;;;;5029455;28;20053;-72
2024/02/22 06:52:43;;;;;;;193.27;182.93;;;13.50;99.90;;;;;;5030535;28;20068;-72
2024/02/22 06:55:10;;;;;;;182.88;172.30;;;13.50;99.90;;;;;;5030454;28;20026;-72
2024/02/22 06:57:38;;;;;;;167.35;158.85;;;13.50;99.90;;;;;;5032174;28;20029;-72
2024/02/22 07:00:05;;;;;;;159.40;151.10;;;13.50;99.90;;;;;;5031608;28;20410;-72
2024/02/22 07:02:31;;;;;;;191.55;181.25;;;13.50;99.90;;;;;;5028725;28;20057;-72
2024/02/22 07:04:57;;;;;;;163.05;154.35;;;13.50;99.90;;;;;;5031997;28;20036;-72
2024/02/22 07:07:24;;;;;;;194.82;183.98;;;13.50;99.90;;;;;;5032476;28;20034;-72
2024/02/22 07:09:52;;;;;;;213.52;202.02;;;13.50;99.90;;;;;;5031590;28;20116;-74
2024/02/22 07:12:18;;;;;;;230.57;217.82;;;13.50;99.90;;;;;;5030208;28;20029;-72
2024/02/22 07:14:44;;;;;;;196.90;186.13;;;13.50;99.90;;;;;;5032156;28;20048;-72
2024/02/22 07:17:10;;;;;;;196.02;185.35;;;13.50;99.90;;;;;;5031117;28;20037;-71
2024/02/22 07:19:36;;;;;;;190.82;180.68;;;13.50;99.90;;;;;;5032071;28;20029;-72
2024/02/22 07:22:03;;;;;;;198.73;188.07;;;13.50;99.90;;;;;;5031441;28;20040;-73
2024/02/22 07:24:29;;;;;;;156.93;148.90;;;13.50;99.90;;;;;;5031452;28;20037;-72
2024/02/22 07:26:56;;;;;;;212.10;200.20;;;13.50;99.90;;;;;;5032276;28;20052;-72
2024/02/22 07:29:23;;;;;;;179.98;170.05;;;13.50;99.90;;;;;;5031892;28;20037;-72
2024/02/22 07:31:49;;;;;;;175.93;166.50;;;13.50;99.90;;;;;;5030256;28;20048;-74
2024/02/22 07:34:16;;;;;;;191.07;180.50;;;13.50;99.90;;;;;;5030924;28;20033;-72
2024/02/22 07:36:42;;;;;;;211.60;200.07;;;13.50;99.90;;;;;;5030927;28;20041;-72
2024/02/22 07:39:09;;;;;;;181.50;171.68;;;13.50;99.90;;;;;;5029157;28;20108;-72
2024/02/22 07:41:35;;;;;;;194.18;183.55;;;13.50;99.90;;;;;;5030690;28;20058;-72
2024/02/22 07:44:01;;;;;;;204.80;193.68;;;13.50;99.90;;;;;;5032158;28;20041;-72
2024/02/22 07:46:27;;;;;;;181.20;171.00;;;13.50;99.90;;;;;;5029711;28;20041;-73
2024/02/22 07:48:55;;;;;;;173.20;163.98;;;13.60;99.90;;;;;;5030367;28;20044;-72
2024/02/22 07:51:22;;;;;;;212.30;200.77;;;13.60;99.90;;;;;;5027471;28;20404;-72
2024/02/22 07:53:48;;;;;;;205.10;193.95;;;13.60;99.90;;;;;;5025578;28;20044;-72
2024/02/22 07:56:14;;;;;;;184.25;174.52;;;13.60;99.90;;;;;;5028458;28;20509;-74
2024/02/22 07:58:47;;;;;;;178.38;169.10;;;13.60;99.90;;;;;;5031407;28;20037;-73
2024/02/22 08:01:14;;;;;;;242.85;229.55;;;13.60;99.90;;;;;;5029207;28;20039;-74
2024/02/22 08:03:41;;;;;;;198.20;187.63;;;13.60;99.90;;;;;;5026991;28;20041;-73
2024/02/22 08:06:09;;;;;;;186.68;176.50;;;13.60;99.90;;;;;;5030608;28;20029;-73
2024/02/22 08:08:36;;;;;;;171.57;162.50;;;13.60;99.90;;;;;;5028318;28;20045;-73
2024/02/22 08:11:02;;;;;;;301.85;281.02;;;13.60;99.90;;;;;;5031648;28;20048;-73
2024/02/22 08:13:28;;;;;;;329.83;308.10;;;13.60;99.90;;;;;;5030353;28;20033;-73
2024/02/22 08:16:02;;;;;;;237.60;224.32;;;13.60;99.90;;;;;;5030841;28;20053;-73
2024/02/22 08:18:28;;;;;;;268.38;252.00;;;13.60;99.90;;;;;;5020401;28;20046;-73
2024/02/22 08:20:54;;;;;;;240.55;227.25;;;13.60;99.90;;;;;;5030727;28;20557;-73
2024/02/22 08:23:21;;;;;;;218.23;205.85;;;13.60;99.90;;;;;;5025698;28;20049;-73
2024/02/22 08:25:47;;;;;;;175.15;165.75;;;13.70;99.90;;;;;;5028583;28;20372;-73
2024/02/22 08:28:13;;;;;;;234.73;221.40;;;13.70;99.90;;;;;;5030288;28;20041;-73
2024/02/22 08:30:41;;;;;;;214.80;202.95;;;13.70;99.90;;;;;;5034211;28;20084;-73
2024/02/22 08:33:07;;;;;;;230.07;217.05;;;13.70;99.90;;;;;;5034510;28;20038;-73
2024/02/22 08:35:33;;;;;;;287.58;270.55;;;13.60;99.90;;;;;;5032590;28;20462;-73
2024/02/22 08:37:59;;;;;;;176.23;166.73;;;13.60;99.90;;;;;;5034657;28;20021;-73
2024/02/22 08:40:25;;;;;;;228.48;215.98;;;13.70;99.90;;;;;;5030206;28;20432;-73
2024/02/22 08:42:53;;;;;;;234.98;222.52;;;13.60;99.90;;;;;;5034986;28;20506;-73
2024/02/22 08:45:20;;;;;;;213.68;202.40;;;13.70;99.90;;;;;;5033747;28;20042;-73
2024/02/22 08:47:46;;;;;;;267.77;252.65;;;13.60;99.90;;;;;;5034998;28;20037;-73
2024/02/22 08:50:12;;;;;;;259.85;245.95;;;13.70;99.90;;;;;;5034278;28;20041;-73
2024/02/22 08:52:42;;;;;;;278.67;262.40;;;13.70;99.90;;;;;;5032471;28;20046;-73
2024/02/22 08:55:09;;;;;;;170.82;161.80;;;13.70;99.90;;;;;;5034991;28;20124;-73
2024/02/22 08:57:35;;;;;;;207.18;196.25;;;13.70;99.90;;;;;;5034639;28;20044;-73
2024/02/22 09:00:03;;;;;;;307.25;288.35;;;13.70;99.90;;;;;;5034852;28;20064;-73
2024/02/22 09:02:30;;;;;;;186.38;176.65;;;13.60;99.90;;;;;;5033153;28;20203;-73
2024/02/22 09:04:56;;;;;;;179.77;170.48;;;13.60;99.90;;;;;;5034227;28;20041;-73
2024/02/22 09:07:24;;;;;;;252.60;238.63;;;13.60;99.90;;;;;;5034498;28;20029;-73
2024/02/22 09:09:53;;;;;;;251.45;236.70;;;13.60;99.90;;;;;;5034598;28;20037;-72
2024/02/22 09:12:20;;;;;;;246.30;232.00;;;13.60;99.90;;;;;;5025984;28;20029;-72
2024/02/22 09:14:46;;;;;;;219.63;207.90;;;13.60;99.90;;;;;;5034685;28;20034;-72
2024/02/22 09:17:12;;;;;;;299.77;280.63;;;13.60;99.90;;;;;;5034054;28;20048;-72
2024/02/22 09:19:38;;;;;;;196.68;186.07;;;13.60;99.90;;;;;;5034278;28;20052;-72
2024/02/22 09:22:04;;;;;;;221.25;208.07;;;13.60;99.90;;;;;;5033464;28;20045;-73
2024/02/22 09:24:30;;;;;;;161.10;152.60;;;13.60;99.90;;;;;;5032609;28;20028;-72
2024/02/22 09:26:57;;;;;;;167.38;158.35;;;13.70;99.90;;;;;;5029481;28;20044;-72
2024/02/22 09:29:26;;;;;;;209.45;197.68;;;13.70;99.90;;;;;;5033033;28;20453;-72
2024/02/22 09:31:55;;;;;;;171.95;162.98;;;13.70;99.90;;;;;;5031625;28;20425;-72
2024/02/22 09:34:23;;;;;;;159.88;151.60;;;13.70;99.90;;;;;;5032860;28;20029;-72
2024/02/22 09:36:49;;;;;;;204.82;193.30;;;13.80;99.90;;;;;;5035086;28;20398;-72
2024/02/22 09:39:20;;;;;;;245.38;230.80;;;13.70;99.90;;;;;;5034524;28;20045;-72
2024/02/22 09:41:46;;;;;;;207.40;195.98;;;13.80;99.90;;;;;;5032511;28;20379;-71
2024/02/22 09:44:13;;;;;;;226.15;213.15;;;13.80;99.90;;;;;;5033373;28;20036;-71
2024/02/22 09:46:39;;;;;;;226.98;214.48;;;13.80;99.90;;;;;;5033368;28;20414;-71
2024/02/22 09:49:06;;;;;;;268.75;252.98;;;13.80;99.90;;;;;;5033489;28;20037;-73
2024/02/22 09:51:35;;;;;;;247.02;232.88;;;13.80;99.90;;;;;;5031354;28;20041;-71
2024/02/22 09:54:01;;;;;;;224.80;212.75;;;13.80;99.90;;;;;;5032322;28;20049;-72
2024/02/22 09:56:27;;;;;;;219.02;206.98;;;13.80;99.90;;;;;;5016597;28;20044;-72
2024/02/22 09:58:57;;;;;;;242.57;229.15;;;13.80;99.90;;;;;;5032652;28;20626;-73
2024/02/22 10:01:24;;;;;;;157.38;148.60;;;13.80;99.90;;;;;;5030783;28;20081;-72
2024/02/22 10:03:50;;;;;;;205.82;194.27;;;13.90;99.90;;;;;;5031616;28;20029;-72
2024/02/22 10:06:17;;;;;;;184.38;174.73;;;13.90;99.90;;;;;;5033470;28;20029;-71
2024/02/22 10:08:44;;;;;;;368.48;342.77;;;13.90;99.90;;;;;;5032734;28;20368;-71
2024/02/22 10:11:11;;;;;;;336.13;314.75;;;13.90;99.90;;;;;;5031651;28;20030;-71
2024/02/22 10:13:37;;;;;;;340.00;318.35;;;13.90;99.90;;;;;;5033816;28;20108;-71
2024/02/22 10:16:14;;;;;;;318.50;299.50;;;13.90;99.90;;;;;;5032758;28;20030;-71
2024/02/22 10:18:41;;;;;;;377.75;352.08;;;14.00;99.90;;;;;;5029359;28;20030;-72
2024/02/22 10:21:17;;;;;;;373.17;350.00;;;14.00;99.90;;;;;;5053192;28;20022;-71
2024/02/22 10:23:46;;;;;;;366.17;342.30;;;14.00;99.90;;;;;;5032317;28;20041;-71
2024/02/22 10:26:13;;;;;;;416.25;388.75;;;14.00;99.90;;;;;;5032758;28;20041;-71
2024/02/22 10:28:39;;;;;;;331.48;311.30;;;14.00;99.90;;;;;;5032932;28;20044;-72
2024/02/22 10:31:08;;;;;;;348.40;327.45;;;13.90;99.90;;;;;;5030961;28;20033;-72
2024/02/22 10:33:34;;;;;;;336.60;315.88;;;14.00;99.90;;;;;;5032859;28;20042;-72
2024/02/22 10:36:01;;;;;;;319.92;301.25;;;14.00;99.90;;;;;;5029328;28;20049;-72
2024/02/22 10:38:28;;;;;;;390.08;364.77;;;14.00;99.90;;;;;;5031305;28;20046;-72
2024/02/22 10:40:55;;;;;;;341.35;320.92;;;14.00;99.90;;;;;;5032285;28;20402;-72
2024/02/22 10:43:22;;;;;;;337.33;317.42;;;14.00;99.90;;;;;;5030050;28;20493;-72
2024/02/22 10:45:50;;;;;;;349.30;328.40;;;14.00;99.90;;;;;;5027510;28;20037;-72
2024/02/22 10:48:16;;;;;;;204.40;193.48;;;14.00;99.90;;;;;;5024227;28;20090;-72
2024/02/22 10:50:42;;;;;;;415.08;384.02;;;14.00;99.90;;;;;;5028773;28;20474;-71
2024/02/22 10:53:08;;;;;;;294.45;277.00;;;14.10;99.90;;;;;;5008688;28;20034;-71
2024/02/22 10:55:34;;;;;;;300.05;281.73;;;14.10;99.90;;;;;;5014611;28;20493;-72
2024/02/22 10:58:02;;;;;;;443.25;412.23;;;14.10;99.90;;;;;;5031091;28;20045;-71
2024/02/22 11:00:29;;;;;;;320.80;301.27;;;14.10;99.90;;;;;;5032322;28;20040;-71
2024/02/22 11:02:55;;;;;;;334.52;314.27;;;14.10;99.90;;;;;;5014377;28;20041;-71
2024/02/22 11:05:22;;;;;;;401.05;372.17;;;14.20;99.90;;;;;;5030890;28;20036;-71
2024/02/22 11:07:51;;;;;;;346.98;325.42;;;14.20;99.90;;;;;;5032236;28;20056;-71
2024/02/22 11:10:18;;;;;;;285.83;269.33;;;14.30;99.90;;;;;;5032537;28;20032;-71
2024/02/22 11:12:44;;;;;;;386.38;360.23;;;14.30;99.90;;;;;;5032301;28;20386;-71
2024/02/22 11:15:11;;;;;;;333.13;312.08;;;14.30;99.90;;;;;;5031756;28;20026;-71
2024/02/22 11:17:37;;;;;;;325.70;306.05;;;14.20;99.90;;;;;;5029732;28;20045;-71
2024/02/22 11:20:09;;;;;;;362.02;339.60;;;14.20;99.90;;;;;;5032753;28;20030;-71
2024/02/22 11:22:36;;;;;;;310.70;292.27;;;14.20;99.90;;;;;;5032106;28;20042;-71
2024/02/22 11:25:09;;;;;;;369.52;346.92;;;14.20;99.90;;;;;;5032419;28;20399;-71
2024/02/22 11:27:38;;;;;;;335.83;315.75;;;14.20;99.90;;;;;;5031361;28;20049;-72
2024/02/22 11:30:14;;;;;;;347.75;325.75;;;14.20;99.90;;;;;;5031806;28;20022;-72
2024/02/22 11:32:41;;;;;;;275.00;258.67;;;14.20;99.90;;;;;;5021556;28;20386;-71
2024/02/22 11:35:07;;;;;;;348.15;324.75;;;14.20;99.90;;;;;;5031489;28;20506;-70
2024/02/22 11:37:33;;;;;;;321.73;301.65;;;14.20;99.90;;;;;;5029332;28;20048;-70
2024/02/22 11:40:00;;;;;;;384.45;356.52;;;14.20;99.90;;;;;;5030825;28;20033;-70
2024/02/22 11:42:26;;;;;;;439.80;410.02;;;14.20;99.90;;;;;;5038551;28;20037;-70
2024/02/22 11:44:53;;;;;;;378.08;352.02;;;14.10;99.90;;;;;;5050902;28;20045;-70
2024/02/22 11:47:19;;;;;;;460.00;422.50;;;14.00;99.90;;;;;;5015138;28;20406;-70
2024/02/22 11:49:45;;;;;;;375.60;348.98;;;13.90;99.90;;;;;;5031028;28;20410;-70
2024/02/22 11:52:14;;;;;;;386.73;358.48;;;13.80;99.90;;;;;;5030987;28;20037;-72
2024/02/22 11:54:40;;;;;;;436.02;402.20;;;13.70;99.90;;;;;;5031832;28;20029;-71
2024/02/22 11:57:08;;;;;;;384.80;357.05;;;13.70;99.90;;;;;;5030602;28;20045;-71
2024/02/22 11:59:34;;;;;;;307.27;286.48;;;13.50;99.90;;;;;;5010357;28;20030;-71
2024/02/22 12:02:04;;;;;;;381.45;354.45;;;13.50;99.90;;;;;;5025952;28;20398;-71
2024/02/22 12:04:32;;;;;;;416.55;383.23;;;13.40;99.90;;;;;;5033930;28;20056;-72
2024/02/22 12:07:03;;;;;;;262.73;244.18;;;13.30;99.90;;;;;;5033538;28;20032;-71